createdAt,value
2023-03-23T15:59:56.768Z,3.00
2023-03-23T16:05:21.384Z,5.10
2023-03-23T16:10:46.848Z,5.50
2023-03-23T16:16:51.036Z,3.90
2023-03-23T16:22:17.136Z,4.40
2023-03-23T16:27:43.365Z,5.80
2023-03-23T16:33:07.604Z,8.20
2023-03-23T16:38:33.699Z,7.20
2023-03-23T16:44:15.213Z,7.50
2023-03-23T16:49:40.367Z,9.50
2023-03-23T16:55:06.103Z,6.60
2023-03-23T17:00:30.756Z,9.80
2023-03-23T17:05:55.421Z,8.60
2023-03-23T17:11:19.980Z,7.90
2023-03-23T17:16:45.507Z,10.20
2023-03-23T17:22:09.742Z,11.50
2023-03-23T17:27:34.531Z,8.30
2023-03-23T17:32:58.726Z,9.90
2023-03-23T17:38:23.120Z,10.90
2023-03-23T17:43:47.306Z,11.10
2023-03-23T17:49:12.837Z,9.80
2023-03-23T17:54:37.576Z,11.20
2023-03-23T18:00:01.669Z,10.20
2023-03-23T18:05:32.295Z,7.20
2023-03-23T18:10:57.773Z,11.10
2023-03-23T18:16:21.899Z,14.50
2023-03-23T18:21:46.588Z,10.60
2023-03-23T18:27:11.260Z,14.90
2023-03-23T18:32:36.882Z,15.30
2023-03-23T18:38:01.580Z,12.40
2023-03-23T18:43:26.139Z,13.70
2023-03-23T18:48:50.525Z,12.20
2023-03-23T18:54:18.099Z,10.40
2023-03-23T18:59:42.604Z,8.40
2023-03-23T19:05:51.058Z,7.50
2023-03-23T19:11:19.450Z,6.30
2023-03-23T19:16:43.463Z,8.20
2023-03-23T19:22:09.282Z,7.80
2023-03-23T19:33:01.858Z,4.50
2023-03-23T19:38:26.570Z,5.20
2023-03-23T19:43:51.228Z,3.00
2023-03-23T19:49:15.505Z,3.20
2023-03-23T19:54:41.089Z,2.90
2023-03-23T20:00:08.375Z,2.90
2023-03-23T20:05:36.897Z,4.00
2023-03-23T20:11:12.274Z,3.90
2023-03-23T20:16:39.026Z,4.50
2023-03-23T20:22:05.016Z,9.70
2023-03-23T20:27:57.685Z,3.80
2023-03-23T20:33:42.596Z,5.00
2023-03-23T20:39:12.029Z,4.40
2023-03-23T20:44:40.552Z,5.60
2023-03-23T20:50:07.527Z,2.40
2023-03-23T20:55:33.554Z,4.20
2023-03-23T21:01:01.910Z,3.40
2023-03-23T21:06:29.741Z,4.80
2023-03-23T21:11:55.920Z,5.70
2023-03-23T21:17:48.194Z,4.10
2023-03-23T21:24:01.662Z,4.80
2023-03-23T21:29:28.324Z,7.10
2023-03-23T21:34:53.778Z,6.00
2023-03-23T21:40:21.288Z,6.30
2023-03-23T21:45:46.670Z,6.00
2023-03-23T21:51:15.222Z,5.30
2023-03-23T21:56:40.435Z,6.20
2023-03-23T22:02:04.420Z,7.90
2023-03-23T22:07:31.088Z,4.30
2023-03-23T22:12:57.436Z,3.70
2023-03-23T22:18:22.298Z,5.90
2023-03-23T22:23:47.248Z,4.90
2023-03-23T22:29:11.804Z,3.90
2023-03-23T22:34:36.084Z,4.80
2023-03-23T22:40:00.988Z,7.20
2023-03-23T22:45:27.787Z,5.50
2023-03-23T22:50:53.378Z,4.50
2023-03-23T22:56:18.373Z,3.80
2023-03-23T23:01:43.013Z,4.60
2023-03-23T23:07:12.787Z,5.00
2023-03-23T23:12:37.661Z,4.80
2023-03-23T23:18:05.521Z,5.00
2023-03-23T23:23:30.201Z,4.70
2023-03-23T23:28:54.869Z,7.00
2023-03-23T23:34:19.410Z,3.40
2023-03-23T23:39:43.582Z,6.10
2023-03-23T23:45:10.704Z,2.50
2023-03-23T23:50:36.124Z,3.60
2023-03-23T23:56:04.038Z,2.70
